Time;durP1;ratioP1;P1;durP2;ratioP2;P2;SDS_P1;SDS_P2;PMS_P1;PMS_P2;Temp;Humidity;BMP_temperature;BMP_pressure;BME280_temperature;BME280_humidity;BME280_pressure;Samples;Min_cycle;Max_cycle;Signal;HPM_P1;HPM_P2
2023/10/16 00:02:14;;;;;;;13.70;6.68;;;;;;;4.91;100.00;101726.97;5058924;28;20077;-80
2023/10/16 00:04:45;;;;;;;10.75;6.20;;;;;;;4.90;100.00;101725.31;5058488;28;20045;-79
2023/10/16 00:07:14;;;;;;;10.00;5.97;;;;;;;4.89;100.00;101721.03;5050852;28;20080;-82
2023/10/16 00:09:41;;;;;;;13.30;6.30;;;;;;;4.85;100.00;101719.56;5064101;28;20044;-81
2023/10/16 00:12:08;;;;;;;10.27;6.20;;;;;;;4.83;100.00;101716.22;5053517;28;20044;-81
2023/10/16 00:14:35;;;;;;;8.50;6.07;;;;;;;4.82;100.00;101714.56;5055744;28;20049;-82
2023/10/16 00:17:03;;;;;;;10.45;6.55;;;;;;;4.76;100.00;101704.56;5061768;28;20076;-81
2023/10/16 00:19:33;;;;;;;15.30;6.90;;;;;;;4.77;100.00;101714.00;5063114;28;20055;-81
2023/10/16 00:22:01;;;;;;;10.85;5.80;;;;;;;4.72;100.00;101718.66;5066291;28;20278;-81
2023/10/16 00:24:28;;;;;;;11.50;6.03;;;;;;;4.71;100.00;101710.97;5061466;28;20045;-82
2023/10/16 00:26:55;;;;;;;12.02;6.50;;;;;;;4.73;100.00;101715.09;5060013;28;20084;-82
2023/10/16 00:29:23;;;;;;;9.20;6.38;;;;;;;4.69;100.00;101712.81;5063127;28;20071;-80
2023/10/16 00:31:52;;;;;;;10.25;6.50;;;;;;;4.67;100.00;101715.50;5072560;28;20053;-80
2023/10/16 00:34:21;;;;;;;9.05;6.05;;;;;;;4.55;100.00;101711.88;5059453;28;20085;-81
2023/10/16 00:36:49;;;;;;;12.18;6.28;;;;;;;4.57;100.00;101714.38;5058647;28;20399;-81
2023/10/16 00:39:19;;;;;;;12.15;6.50;;;;;;;4.54;100.00;101704.19;5059922;28;20072;-81
2023/10/16 00:41:46;;;;;;;11.43;7.28;;;;;;;4.52;100.00;101708.63;5051587;28;20049;-81
2023/10/16 00:44:14;;;;;;;10.45;6.88;;;;;;;4.53;100.00;101707.69;5058023;28;20140;-81
2023/10/16 00:46:44;;;;;;;14.30;7.50;;;;;;;4.60;100.00;101704.66;5052318;28;20490;-79
2023/10/16 00:49:12;;;;;;;11.85;7.13;;;;;;;4.59;100.00;101712.53;5055354;28;20072;-79
2023/10/16 00:51:40;;;;;;;14.25;7.60;;;;;;;4.56;100.00;101715.28;5058136;28;20045;-81
2023/10/16 00:54:15;;;;;;;11.57;7.35;;;;;;;4.50;100.00;101703.53;5058706;28;20051;-79
2023/10/16 00:56:44;;;;;;;14.85;7.88;;;;;;;4.53;100.00;101707.69;5059026;28;20083;-80
2023/10/16 00:59:15;;;;;;;9.70;6.90;;;;;;;4.52;100.00;101709.47;5050442;28;20109;-79
2023/10/16 01:01:43;;;;;;;15.48;7.88;;;;;;;4.46;100.00;101701.22;5057877;28;20053;-81
2023/10/16 01:04:11;;;;;;;14.50;8.05;;;;;;;4.47;100.00;101708.06;5051758;28;20498;-81
2023/10/16 01:06:37;;;;;;;15.27;8.32;;;;;;;4.54;100.00;101714.56;5055681;28;20048;-81
2023/10/16 01:09:09;;;;;;;17.05;8.02;;;;;;;4.56;100.00;101702.34;5057413;28;20045;-81
2023/10/16 01:11:37;;;;;;;13.93;8.35;;;;;;;4.53;100.00;101702.50;5060208;28;20052;-81
2023/10/16 01:14:06;;;;;;;12.30;7.88;;;;;;;4.48;100.00;101699.34;5060558;28;20328;-80
2023/10/16 01:16:32;;;;;;;13.10;7.60;;;;;;;4.49;100.00;101696.69;5061444;28;20084;-79
2023/10/16 01:19:01;;;;;;;14.55;8.00;;;;;;;4.42;100.00;101697.13;5063160;28;20080;-79
2023/10/16 01:21:28;;;;;;;11.68;7.28;;;;;;;4.42;100.00;101704.91;5058533;28;20132;-79
2023/10/16 01:24:02;;;;;;;14.20;8.07;;;;;;;4.41;100.00;101692.88;5064646;28;20109;-78
2023/10/16 01:26:29;;;;;;;12.50;7.45;;;;;;;4.42;100.00;101697.97;5057185;28;20045;-79
2023/10/16 01:28:55;;;;;;;10.38;7.80;;;;;;;4.36;100.00;101702.66;5060800;28;20080;-79
2023/10/16 01:31:22;;;;;;;14.07;8.73;;;;;;;4.43;100.00;101697.03;5063783;28;20053;-79
2023/10/16 01:33:51;;;;;;;13.13;7.45;;;;;;;4.39;100.00;101703.31;5065296;28;20069;-79
2023/10/16 01:36:17;;;;;;;12.57;8.40;;;;;;;4.44;100.00;101697.88;5065140;28;20498;-79
2023/10/16 01:38:44;;;;;;;15.50;8.23;;;;;;;4.39;100.00;101702.50;5063206;28;20080;-80
2023/10/16 01:41:15;;;;;;;15.85;8.68;;;;;;;4.33;100.00;101707.09;5058495;28;20044;-80
2023/10/16 01:43:44;;;;;;;15.35;8.20;;;;;;;4.28;100.00;101703.94;5049976;28;20049;-80
2023/10/16 01:46:12;;;;;;;15.98;8.95;;;;;;;4.14;100.00;101706.53;5050166;28;20055;-80
2023/10/16 01:48:42;;;;;;;16.20;9.00;;;;;;;4.11;100.00;101714.47;5054064;28;20407;-80
2023/10/16 01:51:09;;;;;;;17.35;8.60;;;;;;;4.01;100.00;101713.31;5057896;28;20131;-80
2023/10/16 01:53:39;;;;;;;14.05;8.27;;;;;;;3.95;100.00;101713.66;5058328;28;20049;-81
2023/10/16 01:56:13;;;;;;;15.65;8.70;;;;;;;3.93;100.00;101712.91;5057844;28;20055;-81
2023/10/16 01:58:42;;;;;;;17.85;8.40;;;;;;;3.94;100.00;101712.00;5057066;28;20057;-81
2023/10/16 02:01:10;;;;;;;13.10;8.57;;;;;;;3.93;100.00;101712.91;5049498;28;20041;-80
2023/10/16 02:03:37;;;;;;;16.70;8.85;;;;;;;3.90;100.00;101720.84;5057877;28;20049;-80
2023/10/16 02:06:04;;;;;;;15.40;8.45;;;;;;;3.92;100.00;101717.25;5057731;28;20098;-81
2023/10/16 02:08:31;;;;;;;15.15;8.65;;;;;;;3.89;100.00;101720.03;5058000;28;20071;-80
2023/10/16 02:10:58;;;;;;;17.83;10.00;;;;;;;3.89;100.00;101717.44;5058214;28;20464;-80
2023/10/16 02:13:25;;;;;;;21.85;9.45;;;;;;;3.91;100.00;101712.16;5055501;28;20041;-79
2023/10/16 02:15:53;;;;;;;15.70;9.85;;;;;;;3.92;100.00;101716.44;5055848;28;20056;-80
2023/10/16 02:18:22;;;;;;;15.45;9.65;;;;;;;3.92;100.00;101712.09;5056843;28;20041;-80
2023/10/16 02:20:49;;;;;;;17.40;10.40;;;;;;;3.95;100.00;101711.06;5057471;28;20057;-80
2023/10/16 02:23:17;;;;;;;17.02;10.13;;;;;;;3.88;100.00;101704.56;5059998;28;20053;-79
2023/10/16 02:25:45;;;;;;;16.02;9.98;;;;;;;3.82;100.00;101716.09;5057995;28;20049;-80
2023/10/16 02:28:13;;;;;;;20.27;10.10;;;;;;;3.93;100.00;101712.91;5056643;28;20080;-80
2023/10/16 02:30:41;;;;;;;16.83;10.38;;;;;;;4.00;100.00;101707.31;5053705;28;20079;-80
2023/10/16 02:33:18;;;;;;;16.20;10.40;;;;;;;4.06;100.00;101707.88;5057451;28;20052;-80
2023/10/16 02:35:48;;;;;;;18.13;11.07;;;;;;;4.06;100.00;101713.91;5056645;28;20084;-80
2023/10/16 02:38:23;;;;;;;15.15;9.82;;;;;;;4.06;100.00;101707.88;5055024;28;20056;-79
2023/10/16 02:40:53;;;;;;;16.85;10.38;;;;;;;4.10;100.00;101720.56;5056902;28;20064;-80
2023/10/16 02:43:20;;;;;;;14.13;10.25;;;;;;;3.97;100.00;101704.88;5056916;28;20437;-79
2023/10/16 02:45:51;;;;;;;17.05;9.95;;;;;;;3.99;100.00;101707.38;5056100;28;20075;-79
2023/10/16 02:48:20;;;;;;;19.98;9.93;;;;;;;4.04;100.00;101704.53;5052109;28;20059;-79
2023/10/16 02:50:49;;;;;;;17.63;10.70;;;;;;;4.00;100.00;101709.91;5056650;28;20080;-79
2023/10/16 02:53:21;;;;;;;14.18;10.13;;;;;;;4.00;100.00;101704.72;5056497;28;20045;-79
2023/10/16 02:55:49;;;;;;;21.02;10.70;;;;;;;3.95;100.00;101711.91;5057583;28;20511;-79
2023/10/16 02:58:16;;;;;;;13.77;10.18;;;;;;;3.94;100.00;101712.00;5058774;28;20052;-79
2023/10/16 03:00:49;;;;;;;20.33;11.10;;;;;;;3.94;100.00;101712.81;5057445;28;20045;-79
2023/10/16 03:03:17;;;;;;;17.33;11.13;;;;;;;3.95;100.00;101716.25;5055186;28;20049;-79
2023/10/16 03:05:45;;;;;;;18.92;11.05;;;;;;;3.93;100.00;101715.50;5051604;28;20057;-79
2023/10/16 03:08:13;;;;;;;19.63;11.13;;;;;;;3.90;100.00;101715.69;5055008;28;20083;-79
2023/10/16 03:10:40;;;;;;;16.42;11.15;;;;;;;3.94;100.00;101725.78;5055762;28;20051;-79
2023/10/16 03:13:07;;;;;;;16.17;10.52;;;;;;;3.83;100.00;101719.53;5055408;28;20041;-79
2023/10/16 03:15:42;;;;;;;17.60;10.88;;;;;;;3.84;100.00;101719.44;5057027;28;20045;-80
2023/10/16 03:18:16;;;;;;;17.35;11.50;;;;;;;3.75;100.00;101726.91;5057240;28;20053;-81
2023/10/16 03:20:45;;;;;;;16.05;11.30;;;;;;;3.65;100.00;101726.59;5052343;28;20037;-80
2023/10/16 03:23:12;;;;;;;17.08;11.05;;;;;;;3.53;100.00;101715.16;5047776;28;20076;-80
2023/10/16 03:25:54;;;;;;;16.05;10.73;;;;;;;3.48;100.00;101716.31;5056355;28;20507;-80
2023/10/16 03:28:21;;;;;;;15.00;10.35;;;;;;;3.41;100.00;101717.56;5056780;28;20085;-81
2023/10/16 03:30:49;;;;;;;20.25;10.82;;;;;;;3.35;100.00;101708.38;5060999;28;20343;-81
2023/10/16 03:33:15;;;;;;;18.15;10.95;;;;;;;3.26;100.00;101716.66;5061324;28;20053;-80
2023/10/16 03:35:44;;;;;;;20.90;10.73;;;;;;;3.18;100.00;101716.22;5059144;28;20136;-81
2023/10/16 03:38:20;;;;;;;16.20;10.52;;;;;;;3.09;100.00;101714.97;5058353;28;20132;-80
2023/10/16 03:40:51;;;;;;;19.10;10.40;;;;;;;3.13;100.00;101715.66;5062092;28;20095;-81
2023/10/16 03:43:19;;;;;;;17.73;10.63;;;;;;;3.11;100.00;101720.06;5060908;28;20061;-81
2023/10/16 03:45:45;;;;;;;17.30;11.20;;;;;;;3.10;100.00;101716.66;5062323;28;20049;-78
2023/10/16 03:48:12;;;;;;;18.02;11.35;;;;;;;3.16;100.00;101720.66;5059826;28;20053;-79
2023/10/16 03:50:39;;;;;;;18.65;10.82;;;;;;;3.15;100.00;101724.16;5058315;28;20108;-79
2023/10/16 03:53:07;;;;;;;21.10;11.18;;;;;;;3.19;100.00;101718.75;5052497;28;20056;-79
2023/10/16 03:55:46;;;;;;;17.98;11.15;;;;;;;3.23;100.00;101729.75;5059960;28;20063;-79
2023/10/16 03:58:13;;;;;;;17.63;10.50;;;;;;;3.23;100.00;101722.00;5060311;28;20056;-79
2023/10/16 04:00:50;;;;;;;17.83;11.20;;;;;;;3.23;100.00;101727.19;5055257;28;20053;-79
2023/10/16 04:03:18;;;;;;;18.83;11.98;;;;;;;3.21;100.00;101729.84;5058562;28;20080;-80
2023/10/16 04:05:46;;;;;;;18.73;10.93;;;;;;;3.24;100.00;101726.25;5050848;28;20049;-79
2023/10/16 04:08:14;;;;;;;18.00;12.05;;;;;;;3.26;100.00;101724.44;5049638;28;20053;-80
2023/10/16 04:10:46;;;;;;;20.75;11.93;;;;;;;3.24;100.00;101723.66;5058557;28;20135;-80
2023/10/16 04:13:14;;;;;;;22.38;11.50;;;;;;;3.25;100.00;101726.19;5058442;28;20064;-79
2023/10/16 04:18:33;;;;;;;18.67;12.15;;;;;;;3.34;100.00;101724.81;5046355;28;20139;-79
2023/10/16 04:23:56;;;;;;;17.77;11.15;;;;;;;3.36;100.00;101712.63;5025105;28;20048;-80
2023/10/16 04:26:46;;;;;;;22.55;10.88;;;;;;;3.40;100.00;101708.97;5058267;28;21222;-79
2023/10/16 04:32:07;;;;;;;19.90;11.65;;;;;;;3.50;100.00;101702.38;5061868;28;20045;-78
2023/10/16 04:34:34;;;;;;;18.33;11.15;;;;;;;3.44;100.00;101705.28;5064943;28;20052;-79
2023/10/16 04:45:28;;;;;;;20.98;11.32;;;;;;;3.23;100.00;101691.78;5057803;28;20059;-79
2023/10/16 04:48:07;;;;;;;18.20;11.50;;;;;;;3.23;100.00;101683.19;5056754;28;20087;-79
2023/10/16 04:50:40;;;;;;;18.30;11.63;;;;;;;3.18;100.00;101677.44;5054194;28;20045;-79
2023/10/16 04:53:07;;;;;;;17.90;10.43;;;;;;;3.23;100.00;101678.03;5056944;28;20111;-79
2023/10/16 04:56:04;;;;;;;17.95;10.98;;;;;;;3.27;100.00;101690.72;5056796;28;20231;-79
2023/10/16 04:58:47;;;;;;;23.80;11.52;;;;;;;3.27;100.00;101679.53;5048735;28;20130;-79
2023/10/16 05:06:49;;;;;;;19.83;10.60;;;;;;;3.20;100.00;101675.59;5056322;28;20548;-79
2023/10/16 06:15:23;;;;;;;17.88;9.30;;;;;;;3.07;100.00;101690.94;4993259;28;20089;-83
2023/10/16 06:21:06;;;;;;;14.45;9.65;;;;;;;3.18;100.00;101701.56;4969149;28;20107;-84
2023/10/16 06:24:25;;;;;;;21.58;9.77;;;;;;;3.38;100.00;101697.03;4995656;28;20058;-83
2023/10/16 06:27:47;;;;;;;;;;;;;;;;;;;;;
2023/10/16 06:30:48;;;;;;;15.77;9.48;;;;;;;3.29;100.00;101691.47;4999369;28;20050;-84
2023/10/16 06:33:31;;;;;;;15.93;9.23;;;;;;;3.38;100.00;101697.03;4998149;28;20054;-84
2023/10/16 06:36:38;;;;;;;15.15;9.57;;;;;;;3.43;100.00;101695.88;4991176;28;20050;-83
2023/10/16 06:42:17;;;;;;;15.88;9.32;;;;;;;3.66;100.00;101690.25;4996729;28;20058;-82
2023/10/16 06:45:03;;;;;;;14.05;9.52;;;;;;;3.64;100.00;101689.50;4998543;28;20077;-82
2023/10/16 06:47:49;;;;;;;13.32;9.32;;;;;;;3.83;100.00;101697.06;4999051;28;20046;-82
2023/10/16 06:53:30;;;;;;;15.35;8.93;;;;;;;3.95;100.00;101698.13;4971157;28;20126;-83
2023/10/16 06:55:59;;;;;;;16.33;8.95;;;;;;;3.92;100.00;101686.19;4997426;28;20058;-83
2023/10/16 06:58:28;;;;;;;13.60;8.90;;;;;;;3.91;100.00;101689.69;4997134;28;20050;-84
2023/10/16 07:01:08;;;;;;;13.35;8.05;;;;;;;4.16;100.00;101686.53;4998317;28;20050;-81
2023/10/16 07:03:35;;;;;;;15.57;8.70;;;;;;;4.37;100.00;101689.63;4997886;28;20058;-82
2023/10/16 07:06:07;;;;;;;13.35;8.55;;;;;;;4.14;100.00;101682.38;5000528;28;20085;-82
2023/10/16 07:08:38;;;;;;;11.75;8.15;;;;;;;4.16;100.00;101689.13;5002996;28;20042;-81
2023/10/16 07:11:11;;;;;;;12.80;7.75;;;;;;;4.30;100.00;101686.56;5001733;28;20112;-82
2023/10/16 07:13:43;;;;;;;14.68;7.78;;;;;;;4.29;100.00;101673.69;4997607;28;20085;-82
2023/10/16 07:16:10;;;;;;;14.88;8.57;;;;;;;4.07;100.00;101665.53;5002217;28;20050;-82
2023/10/16 07:18:42;;;;;;;11.23;8.25;;;;;;;4.35;100.00;101688.88;5001029;28;20536;-81
2023/10/16 07:21:09;;;;;;;16.00;8.40;;;;;;;4.48;100.00;101683.81;5002410;28;20438;-85
2023/10/16 07:23:44;;;;;;;13.05;8.13;;;;;;;4.84;100.00;101686.78;4999719;28;20057;-82
2023/10/16 07:26:16;;;;;;;13.73;8.55;;;;;;;4.77;100.00;101685.47;5001798;28;20077;-83
2023/10/16 07:28:48;;;;;;;11.67;8.37;;;;;;;4.95;100.00;101678.34;5000480;28;20050;-83
2023/10/16 07:31:16;;;;;;;14.63;7.97;;;;;;;5.09;100.00;101674.91;4995417;28;20365;-83
2023/10/16 07:33:43;;;;;;;11.63;8.25;;;;;;;4.93;100.00;101665.47;4996918;28;20046;-83
2023/10/16 07:36:12;;;;;;;14.43;8.05;;;;;;;5.16;100.00;101671.00;4999818;28;20042;-83
2023/10/16 07:38:39;;;;;;;12.27;7.75;;;;;;;5.10;100.00;101666.19;4993959;28;20417;-82
2023/10/16 07:41:12;;;;;;;11.43;7.78;;;;;;;5.07;100.00;101656.84;4999521;28;20058;-82
2023/10/16 07:43:46;;;;;;;15.65;8.48;;;;;;;5.24;100.00;101658.34;4999714;28;20483;-83
2023/10/16 07:46:29;;;;;;;15.40;8.27;;;;;;;4.92;100.00;101647.41;4993633;28;20050;-82
2023/10/16 07:49:09;;;;;;;15.88;7.57;;;;;;;4.88;100.00;101648.53;4994220;28;20551;-85
2023/10/16 07:51:45;;;;;;;13.93;7.72;;;;;;;5.26;100.00;101661.69;5000761;28;20046;-83
2023/10/16 07:54:14;;;;;;;13.38;7.68;;;;;;;5.04;100.00;101645.81;4995851;28;20050;-82
2023/10/16 07:56:42;;;;;;;12.77;8.43;;;;;;;5.20;100.00;101646.53;4996727;28;20047;-83
2023/10/16 07:59:09;;;;;;;11.57;7.78;;;;;;;5.21;100.00;101642.97;4985853;28;20051;-82
2023/10/16 08:01:41;;;;;;;16.02;8.68;;;;;;;5.41;100.00;101652.09;4999742;28;20050;-83
2023/10/16 08:04:34;;;;;;;14.80;9.30;;;;;;;5.50;100.00;101638.53;5001877;28;20057;-83
2023/10/16 08:07:09;;;;;;;14.02;8.70;;;;;;;5.68;100.00;101637.34;4998765;28;20050;-82
2023/10/16 08:10:28;;;;;;;17.67;9.55;;;;;;;5.85;100.00;101652.66;4989711;28;20061;-83
2023/10/16 08:12:49;;;;;;;;;;;;;;;6.37;100.00;101663.97;5001964;28;20042;-81
2023/10/16 08:15:21;;;;;;;20.17;9.38;;;;;;;6.20;100.00;101645.13;4999308;28;19921;-83
2023/10/16 08:17:51;;;;;;;17.77;8.75;;;;;;;6.28;100.00;101661.06;5001364;28;20428;-82
2023/10/16 08:20:21;;;;;;;18.13;10.05;;;;;;;6.77;100.00;101655.09;4999934;28;20049;-83
2023/10/16 08:22:49;;;;;;;17.95;10.57;;;;;;;6.75;100.00;101649.16;4997692;28;20110;-81
2023/10/16 08:27:58;;;;;;;19.48;10.27;;;;;;;6.51;100.00;101648.28;5000426;28;20064;-83
2023/10/16 08:30:33;;;;;;;16.25;10.60;;;;;;;7.01;100.00;101657.78;4998114;28;20081;-84
2023/10/16 08:33:07;;;;;;;20.48;11.30;;;;;;;6.99;98.81;101647.47;4999546;28;20061;-85
2023/10/16 08:35:38;;;;;;;16.20;10.85;;;;;;;6.94;98.41;101644.34;4998558;28;20075;-82
2023/10/16 08:38:10;;;;;;;19.92;12.20;;;;;;;6.62;98.61;101646.56;5003637;28;21719;-84
2023/10/16 08:40:41;;;;;;;22.85;13.48;;;;;;;6.99;98.99;101654.44;5002355;28;20047;-83
2023/10/16 08:43:09;;;;;;;22.40;13.70;;;;;;;6.76;98.96;101658.63;5002932;28;20054;-84
2023/10/16 08:45:44;;;;;;;20.52;13.10;;;;;;;6.66;99.45;101645.44;5003254;28;20060;-81
2023/10/16 08:48:17;;;;;;;22.90;13.90;;;;;;;6.39;100.00;101656.91;4995858;28;20054;-82
2023/10/16 08:50:52;;;;;;;23.95;14.90;;;;;;;6.72;100.00;101661.56;5002008;28;20054;-81
2023/10/16 08:53:32;;;;;;;23.05;14.93;;;;;;;7.25;100.00;101660.38;4993276;28;20054;-82
2023/10/16 08:56:03;;;;;;;23.98;14.82;;;;;;;7.15;100.00;101661.97;4993467;28;20046;-82
2023/10/16 08:58:34;;;;;;;22.15;14.40;;;;;;;7.05;100.00;101658.38;4996083;28;20105;-83
2023/10/16 09:01:07;;;;;;;26.48;15.88;;;;;;;6.50;100.00;101655.25;4994500;28;20047;-83
2023/10/16 09:03:37;;;;;;;30.33;18.17;;;;;;;6.62;100.00;101677.78;4999890;28;20053;-83
2023/10/16 09:06:04;;;;;;;33.17;18.05;;;;;;;6.70;100.00;101668.63;4998252;28;20058;-83
2023/10/16 09:08:33;;;;;;;33.30;20.30;;;;;;;6.78;100.00;101680.19;4994950;28;20489;-84
2023/10/16 09:11:05;;;;;;;31.52;19.10;;;;;;;7.04;100.00;101672.34;4998589;28;20081;-83
2023/10/16 09:13:36;;;;;;;;;;;;;;;6.82;100.00;101668.63;4997908;28;20128;-83
2023/10/16 09:16:07;;;;;;;32.42;19.13;;;;;;;7.05;100.00;101674.00;4994141;28;20368;-83
2023/10/16 09:18:35;;;;;;;29.83;18.85;;;;;;;7.37;100.00;101676.91;4995027;28;20174;-84
2023/10/16 09:21:13;;;;;;;27.27;18.55;;;;;;;7.65;100.00;101685.22;4998690;28;20596;-84
2023/10/16 09:37:34;;;;;;;40.65;24.33;;;;;;;6.61;100.00;101644.94;4987557;23;20046;-79
2023/10/16 09:40:18;;;;;;;44.72;24.73;;;;;;;6.61;100.00;101665.75;5034712;28;20557;-79
2023/10/16 09:42:55;;;;;;;44.47;25.25;;;;;;;6.44;100.00;101657.44;5036840;28;20041;-80
2023/10/16 09:45:23;;;;;;;41.22;24.67;;;;;;;6.49;100.00;101660.56;5031993;28;20045;-80
2023/10/16 09:48:07;;;;;;;43.70;26.23;;;;;;;6.75;100.00;101666.53;5036419;28;20053;-80
2023/10/16 09:50:37;;;;;;;44.70;26.42;;;;;;;6.85;100.00;101668.41;5036583;28;20191;-80
2023/10/16 09:53:05;;;;;;;43.65;24.95;;;;;;;6.74;100.00;101677.88;5035383;28;20517;-78
2023/10/16 09:55:39;;;;;;;41.55;24.55;;;;;;;6.89;100.00;101669.88;5034674;28;20053;-80
2023/10/16 09:58:08;;;;;;;43.60;24.45;;;;;;;6.50;100.00;101649.22;5034780;28;20132;-80
2023/10/16 10:00:46;;;;;;;55.13;25.20;;;;;;;6.47;100.00;101646.81;5033528;28;20423;-79
2023/10/16 10:06:12;;;;;;;42.53;26.60;;;;;;;7.03;100.00;101686.28;5032788;28;20057;-80
2023/10/16 10:12:28;;;;;;;43.65;26.30;;;;;;;7.47;100.00;101654.50;5032753;28;20057;-80
2023/10/16 10:15:22;;;;;;;45.38;26.13;;;;;;;7.50;100.00;101662.91;5034489;28;20049;-79
2023/10/16 10:17:55;;;;;;;44.03;27.15;;;;;;;7.65;100.00;101659.16;5034117;28;20115;-80
2023/10/16 10:20:26;;;;;;;;;;;;;;;7.98;100.00;101665.47;5034486;28;20042;-80
2023/10/16 10:22:59;;;;;;;39.00;25.63;;;;;;;7.77;100.00;101654.00;5035023;28;19921;-80
2023/10/16 10:25:29;;;;;;;40.45;25.23;;;;;;;7.65;100.00;101647.91;5034718;28;20133;-80
2023/10/16 10:28:09;;;;;;;36.47;22.67;;;;;;;7.84;100.00;101652.63;5032771;28;20077;-79
2023/10/16 10:30:39;;;;;;;35.08;22.77;;;;;;;8.05;100.00;101644.97;5034538;28;20049;-80
2023/10/16 10:33:10;;;;;;;32.25;21.45;;;;;;;7.98;100.00;101644.63;5036247;28;20041;-79
2023/10/16 10:35:39;;;;;;;34.38;22.00;;;;;;;8.58;100.00;101643.53;5038248;28;20089;-79
2023/10/16 10:38:18;;;;;;;28.95;20.58;;;;;;;8.60;98.49;101626.81;5039043;28;20049;-79
2023/10/16 10:41:13;;;;;;;27.75;19.80;;;;;;;8.73;96.55;101626.69;5036160;28;20053;-80
2023/10/16 10:43:46;;;;;;;26.48;17.60;;;;;;;8.97;95.36;101601.28;5030217;28;20057;-79
2023/10/16 10:46:13;;;;;;;32.00;17.98;;;;;;;9.12;94.08;101603.59;5031862;28;20045;-79
2023/10/16 10:48:40;;;;;;;23.60;16.90;;;;;;;9.21;93.05;101600.25;5034836;28;20109;-79
2023/10/16 10:51:13;;;;;;;25.40;17.25;;;;;;;9.52;92.87;101594.19;5035022;28;20080;-79
2023/10/16 10:53:53;;;;;;;21.10;14.48;;;;;;;9.68;90.74;101574.63;5040532;28;20049;-79
2023/10/16 10:56:21;;;;;;;22.35;14.88;;;;;;;10.01;89.89;101579.66;5034435;28;20045;-80
2023/10/16 10:58:48;;;;;;;26.05;16.00;;;;;;;9.51;88.96;101566.41;5035149;28;20060;-80
2023/10/16 11:01:26;;;;;;;22.63;14.15;;;;;;;9.69;89.60;101548.38;5034281;28;20052;-79
2023/10/16 11:03:54;;;;;;;23.77;13.85;;;;;;;10.28;89.18;101569.50;5034848;28;20470;-79
2023/10/16 11:06:31;;;;;;;27.58;16.92;;;;;;;10.18;88.59;101549.47;5032439;28;20502;-79
2023/10/16 11:09:11;;;;;;;25.52;15.73;;;;;;;10.42;88.15;101559.63;5034261;28;20050;-79
2023/10/16 11:11:44;;;;;;;19.02;14.57;;;;;;;10.69;87.18;101549.38;5033034;28;20041;-80
2023/10/16 11:14:12;;;;;;;20.73;14.10;;;;;;;10.26;86.87;101536.59;5035086;28;20140;-80
2023/10/16 11:16:42;;;;;;;20.58;13.55;;;;;;;10.26;86.86;101547.88;5033339;28;20076;-80
2023/10/16 11:19:23;;;;;;;17.85;11.98;;;;;;;10.67;85.87;101542.63;5034901;28;20317;-80
2023/10/16 11:21:52;;;;;;;21.77;13.40;;;;;;;10.37;85.05;101518.19;5035147;28;20045;-80
2023/10/16 11:24:24;;;;;;;24.05;13.45;;;;;;;10.38;85.17;101524.25;5029140;28;20069;-80
2023/10/16 11:26:52;;;;;;;22.53;13.57;;;;;;;10.22;85.72;101517.72;5034774;28;20119;-79
2023/10/16 11:29:19;;;;;;;22.15;13.23;;;;;;;10.22;85.16;101522.94;5033905;28;20725;-79
2023/10/16 11:31:45;;;;;;;16.73;11.23;;;;;;;10.63;85.29;101521.13;5035300;28;20049;-80
2023/10/16 11:34:24;;;;;;;22.58;13.60;;;;;;;10.80;84.54;101510.00;5034413;28;20137;-79
2023/10/16 11:36:57;;;;;;;18.50;12.55;;;;;;;10.57;84.00;101513.81;5041208;28;20060;-79
2023/10/16 11:39:26;;;;;;;18.30;12.10;;;;;;;10.37;84.61;101501.66;5034611;28;20111;-79
2023/10/16 11:41:52;;;;;;;19.92;12.35;;;;;;;11.11;84.28;101507.25;5035112;28;20112;-79
2023/10/16 11:44:25;;;;;;;17.60;11.27;;;;;;;11.33;82.79;101491.25;5034575;28;20053;-79
2023/10/16 11:46:53;;;;;;;18.52;11.65;;;;;;;11.56;81.57;101479.47;5033855;28;20061;-80
2023/10/16 11:49:32;;;;;;;19.30;11.75;;;;;;;11.08;81.52;101474.31;5035232;28;20049;-80
2023/10/16 11:52:13;;;;;;;17.15;11.38;;;;;;;11.12;81.16;101477.47;5040119;28;20458;-80
2023/10/16 11:54:40;;;;;;;18.52;11.23;;;;;;;10.98;82.42;101494.44;5040031;28;20053;-80
2023/10/16 11:57:13;;;;;;;23.85;11.70;;;;;;;10.91;82.25;101475.81;5039991;28;20513;-80
2023/10/16 11:59:40;;;;;;;22.95;11.88;;;;;;;10.80;82.31;101483.84;5041142;28;20045;-79
2023/10/16 12:02:11;;;;;;;18.02;10.73;;;;;;;11.41;82.23;101488.75;5039862;28;20065;-79
2023/10/16 12:04:40;;;;;;;17.58;11.68;;;;;;;11.22;81.20;101470.44;5043478;28;20439;-80
2023/10/16 12:07:08;;;;;;;22.85;10.20;;;;;;;11.19;80.65;101465.47;5044768;28;20061;-80
2023/10/16 12:09:38;;;;;;;16.92;10.13;;;;;;;11.51;80.54;101465.13;5040245;28;20045;-80
2023/10/16 12:12:06;;;;;;;15.57;10.75;;;;;;;11.29;80.11;101453.19;5039936;28;20140;-80
2023/10/16 12:14:37;;;;;;;16.25;10.35;;;;;;;11.79;80.21;101461.66;5041183;28;20428;-80
2023/10/16 12:17:06;;;;;;;17.30;11.20;;;;;;;11.57;80.28;101462.78;5046197;28;20132;-79
2023/10/16 12:19:38;;;;;;;15.25;10.65;;;;;;;11.81;79.59;101437.91;5053949;28;20041;-79
2023/10/16 12:22:15;;;;;;;16.30;9.98;;;;;;;11.94;79.39;101438.38;5053389;28;20053;-80
2023/10/16 12:24:43;;;;;;;18.48;10.50;;;;;;;11.71;79.11;101437.91;5048694;28;20046;-80
2023/10/16 12:27:10;;;;;;;15.10;9.75;;;;;;;12.00;79.30;101432.56;5038887;28;20107;-80
2023/10/16 12:29:37;;;;;;;19.00;11.88;;;;;;;11.99;78.33;101430.91;5041703;28;20061;-80
2023/10/16 12:32:04;;;;;;;16.30;9.85;;;;;;;11.62;78.82;101433.53;5037594;28;20099;-80
2023/10/16 12:34:32;;;;;;;16.50;9.88;;;;;;;11.57;78.84;101426.09;5039189;28;20053;-80
2023/10/16 12:37:15;;;;;;;16.48;9.75;;;;;;;11.66;78.84;101428.81;5129165;22;20140;-80
2023/10/16 12:39:55;;;;;;;14.95;10.40;;;;;;;11.38;78.77;101397.31;5050594;28;20048;-80
2023/10/16 12:42:24;;;;;;;16.10;10.15;;;;;;;11.66;79.12;101423.56;5030907;28;20045;-80
2023/10/16 12:45:11;;;;;;;17.65;10.43;;;;;;;11.95;78.99;101403.31;5037282;28;20049;-80
2023/10/16 12:47:40;;;;;;;15.82;9.68;;;;;;;12.08;79.04;101400.34;5023931;28;20054;-79
2023/10/16 12:57:13;;;;;;;13.93;9.85;;;;;;;12.02;77.44;101399.13;4954798;28;20082;-82
2023/10/16 13:00:30;;;;;;;;;;;;;;;;;;;;;
2023/10/16 13:03:37;;;;;;;15.15;9.75;;;;;;;11.95;76.94;101387.56;4990696;28;20057;-83
2023/10/16 13:06:55;;;;;;;16.48;9.57;;;;;;;11.52;76.84;101375.88;5023611;28;20049;-81
2023/10/16 13:09:49;;;;;;;14.93;9.10;;;;;;;11.83;77.15;101388.75;5034331;28;20107;-82
2023/10/16 13:12:47;;;;;;;17.90;9.98;;;;;;;11.97;77.69;101401.38;5029356;28;20079;-82
2023/10/16 13:15:39;;;;;;;17.17;9.90;;;;;;;12.26;77.70;101395.97;5043604;28;20049;-82
2023/10/16 13:18:28;;;;;;;16.63;8.97;;;;;;;12.59;76.96;101407.59;4994680;28;20054;-81
2023/10/16 13:21:14;;;;;;;13.85;8.93;;;;;;;12.29;76.12;101385.97;4999499;28;20302;-82
2023/10/16 13:24:14;;;;;;;15.43;8.60;;;;;;;12.14;76.15;101370.91;5001116;28;20047;-82
2023/10/16 13:26:57;;;;;;;;;;;;;;;;;;;;;
2023/10/16 13:29:45;;;;;;;14.75;9.52;;;;;;;12.23;77.91;101404.97;5024852;28;20057;-81
2023/10/16 13:32:17;;;;;;;12.75;8.48;;;;;;;11.84;77.66;101379.91;4980176;28;20051;-80
2023/10/16 13:35:00;;;;;;;14.30;7.97;;;;;;;11.76;77.05;101379.81;5036598;28;20068;-81
2023/10/16 13:37:51;;;;;;;12.32;7.50;;;;;;;11.55;77.33;101380.00;5035672;28;20071;-81
2023/10/16 13:43:26;;;;;;;12.35;6.40;;;;;;;11.31;76.52;101354.31;5037610;28;20057;-78
2023/10/16 13:46:29;;;;;;;11.70;7.38;;;;;;;11.45;77.84;101394.94;4943653;29;20059;-78
2023/10/16 13:48:57;;;;;;;;;;;;;;;11.47;78.12;101404.31;4998010;28;20050;-80
2023/10/16 13:51:35;;;;;;;12.27;7.25;;;;;;;11.70;78.47;101398.72;5042333;28;19944;-80
2023/10/16 13:54:01;;;;;;;10.57;7.57;;;;;;;11.43;77.85;101384.59;5040751;28;20049;-81
2023/10/16 13:56:28;;;;;;;15.85;8.80;;;;;;;11.64;78.06;101374.75;5041712;28;20061;-80
2023/10/16 13:59:32;;;;;;;13.23;7.00;;;;;;;11.71;78.07;101369.75;5042103;28;20156;-81